Terminal Aerodrome Forecast
Issued by NWS

Home | Current Version | Previous Version | Text Only | Print | Product List | Glossary On
Versions: 1 2 3 4 5 6 7 8 9 10 11 12 13
000
FTUS46 KPDT 251720
TAFDLS
TAF
KDLS 251720Z 2518/2618 31010KT P6SM BKN060
     FM260300 30007KT P6SM SCT070 BKN150
     FM260600 30007KT P6SM BKN070 OVC150
     FM261200 VRB06KT P6SM VCSH OVC060
     FM261500 11005KT P6SM -SHSN OVC035=

USA.gov is the U.S. government's official web portal to all federal, state and local government web resources and services.